Fairmount City, Pennsylvania
Current Conditions -  °F | °C
As of 1:53 PM on Monday 22 Dec 2014 (Local Time) from KDUJ Reporting Station
Overcast Overcast  
Wind Chill: 25°   Ceiling: 3300
Heat Index: 33°   Visibility: 7mi
Dew Point: 25°   Wind: 10mph
Humidity: 72%   Direction: 120°ESE
Pressure: 30.05"   Gusts: NA
Location:  41.01°N, 79.32°W
Report Text: KDUJ 221853Z AUTO 12009KT 7SM OVC033 01/M04 A3005 RMK AO2 SLP197 T00061039
Loading
Personal Weather Stations






























Interactive Weather Map New forecast layout! Learn more

10-Day Weather Forecast

Advertisements
Track Severe Weather on mobile